Time;durP1;ratioP1;P1;durP2;ratioP2;P2;SDS_P1;SDS_P2;PMS_P1;PMS_P2;Temp;Humidity;BMP_temperature;BMP_pressure;BME280_temperature;BME280_humidity;BME280_pressure;Samples;Min_cycle;Max_cycle;Signal;HPM_P1;HPM_P2
2023/09/25 00:00:36;;;;;;;14.88;6.28;;;;;;;;;;5119543;27;20039;-68
2023/09/25 00:03:03;;;;;;;15.07;6.15;;;;;;;;;;5137334;27;20051;-68
2023/09/25 00:05:30;;;;;;;19.73;6.35;;;;;;;;;;5102308;27;20047;-67
2023/09/25 00:07:56;;;;;;;20.83;6.25;;;;;;;;;;5137225;27;20055;-68
2023/09/25 00:10:22;;;;;;;18.02;6.13;;;;;;;;;;5137142;27;20047;-68
2023/09/25 00:12:49;;;;;;;21.95;6.85;;;;;;;;;;5138023;27;20043;-68
2023/09/25 00:15:15;;;;;;;16.65;6.65;;;;;;;;;;5137215;27;20058;-67
2023/09/25 00:17:43;;;;;;;19.42;7.03;;;;;;;;;;5118838;27;20077;-68
2023/09/25 00:20:12;;;;;;;16.35;6.00;;;;;;;;;;5137053;27;20368;-70
2023/09/25 00:22:39;;;;;;;20.33;7.05;;;;;;;;;;5137065;27;20283;-68
2023/09/25 00:25:06;;;;;;;19.55;6.15;;;;;;;;;;5118817;27;20502;-67
2023/09/25 00:27:32;;;;;;;20.38;6.45;;;;;;;;;;5119353;27;20366;-67
2023/09/25 00:29:58;;;;;;;17.70;6.68;;;;;;;;;;5118701;27;20082;-67
2023/09/25 00:32:24;;;;;;;16.40;6.40;;;;;;;;;;5136787;27;20058;-70
2023/09/25 00:34:50;;;;;;;16.85;6.55;;;;;;;;;;5137365;27;20449;-67
2023/09/25 00:37:17;;;;;;;20.98;7.05;;;;;;;;;;5118277;27;20043;-67
2023/09/25 00:39:44;;;;;;;18.75;6.90;;;;;;;;;;5137116;27;20126;-67
2023/09/25 00:42:10;;;;;;;19.10;6.78;;;;;;;;;;5136600;27;20050;-67
2023/09/25 00:44:36;;;;;;;18.98;7.38;;;;;;;;;;5137108;27;20379;-67
2023/09/25 00:47:03;;;;;;;24.30;7.75;;;;;;;;;;5118581;27;20383;-67
2023/09/25 00:49:30;;;;;;;20.52;7.32;;;;;;;;;;5118366;27;20046;-67
2023/09/25 00:51:57;;;;;;;21.45;7.70;;;;;;;;;;5137055;27;20122;-68
2023/09/25 00:54:23;;;;;;;17.80;6.97;;;;;;;;;;5118304;27;20047;-72
2023/09/25 00:56:49;;;;;;;23.05;7.65;;;;;;;;;;5136422;27;20043;-67
2023/09/25 00:59:16;;;;;;;16.67;7.35;;;;;;;;;;5101431;27;20047;-68
2023/09/25 01:01:43;;;;;;;18.50;7.22;;;;;;;;;;5136066;27;20039;-67
2023/09/25 01:04:09;;;;;;;16.30;6.93;;;;;;;;;;5135438;27;20047;-67
2023/09/25 01:06:36;;;;;;;22.25;7.18;;;;;;;;;;5136036;27;20047;-67
2023/09/25 01:09:04;;;;;;;29.25;8.60;;;;;;;;;;5136193;27;20051;-66
2023/09/25 01:11:30;;;;;;;23.08;8.15;;;;;;;;;;5136267;27;20435;-69
2023/09/25 01:13:56;;;;;;;18.33;7.68;;;;;;;;;;5136592;27;20114;-68
2023/09/25 01:16:22;;;;;;;22.20;7.70;;;;;;;;;;5117717;27;20039;-67
2023/09/25 01:18:48;;;;;;;20.37;7.50;;;;;;;;;;5136076;27;20146;-68
2023/09/25 01:21:14;;;;;;;20.58;8.63;;;;;;;;;;5135835;27;20394;-68
2023/09/25 01:23:40;;;;;;;20.10;7.70;;;;;;;;;;5117152;27;20059;-67
2023/09/25 01:26:06;;;;;;;19.85;8.35;;;;;;;;;;5118080;27;20064;-71
2023/09/25 01:28:33;;;;;;;17.10;7.60;;;;;;;;;;5135662;27;20364;-69
2023/09/25 01:30:59;;;;;;;23.95;8.38;;;;;;;;;;5135743;27;20082;-67
2023/09/25 01:33:28;;;;;;;24.58;8.65;;;;;;;;;;5135486;27;20053;-67
2023/09/25 01:35:54;;;;;;;24.90;9.60;;;;;;;;;;5136317;27;20046;-68
2023/09/25 01:38:20;;;;;;;21.90;8.60;;;;;;;;;;5117386;27;20068;-67
2023/09/25 01:40:46;;;;;;;21.83;8.88;;;;;;;;;;5117298;27;20101;-68
2023/09/25 01:43:12;;;;;;;23.00;8.88;;;;;;;;;;5136252;27;20043;-69
2023/09/25 01:45:38;;;;;;;29.73;9.43;;;;;;;;;;5135448;27;20125;-68
2023/09/25 01:48:05;;;;;;;23.48;8.82;;;;;;;;;;5135478;27;20108;-68
2023/09/25 01:50:31;;;;;;;18.63;8.30;;;;;;;;;;5135365;27;20050;-68
2023/09/25 01:52:58;;;;;;;23.63;8.70;;;;;;;;;;5135313;27;20059;-67
2023/09/25 01:55:27;;;;;;;25.17;9.00;;;;;;;;;;5118020;27;20051;-68
2023/09/25 01:57:53;;;;;;;21.63;8.73;;;;;;;;;;5116718;27;20043;-67
2023/09/25 02:00:19;;;;;;;22.88;8.95;;;;;;;;;;5135276;27;20092;-68
2023/09/25 02:02:46;;;;;;;23.83;9.15;;;;;;;;;;5134770;27;20050;-69
2023/09/25 02:05:12;;;;;;;25.73;9.05;;;;;;;;;;5099634;27;20054;-67
2023/09/25 02:07:38;;;;;;;21.42;9.13;;;;;;;;;;5135184;27;20150;-67
2023/09/25 02:10:05;;;;;;;22.15;9.10;;;;;;;;;;5117767;27;20460;-67
2023/09/25 02:12:31;;;;;;;27.33;8.93;;;;;;;;;;5134653;27;20046;-68
2023/09/25 02:14:59;;;;;;;27.73;8.60;;;;;;;;;;5116012;27;20031;-67
2023/09/25 02:17:27;;;;;;;24.15;9.55;;;;;;;;;;5134881;27;20051;-67
2023/09/25 02:19:54;;;;;;;25.25;9.40;;;;;;;;;;5117137;27;20107;-68
2023/09/25 02:22:20;;;;;;;23.88;8.45;;;;;;;;;;5134457;27;20043;-67
2023/09/25 02:24:46;;;;;;;24.15;8.77;;;;;;;;;;5134491;27;20142;-67
2023/09/25 02:27:12;;;;;;;22.60;9.23;;;;;;;;;;5134739;27;20043;-68
2023/09/25 02:29:38;;;;;;;22.67;8.47;;;;;;;;;;5116320;27;20043;-70
2023/09/25 02:32:04;;;;;;;24.25;9.05;;;;;;;;;;5134539;27;20054;-66
2023/09/25 02:34:31;;;;;;;23.83;8.88;;;;;;;;;;5134189;27;20506;-68
2023/09/25 02:36:57;;;;;;;26.05;9.30;;;;;;;;;;5134661;27;20068;-67
2023/09/25 02:39:23;;;;;;;22.52;8.77;;;;;;;;;;5134471;27;20051;-69
2023/09/25 02:41:49;;;;;;;26.52;9.52;;;;;;;;;;5134336;27;20177;-67
2023/09/25 02:44:15;;;;;;;23.95;9.02;;;;;;;;;;5117021;27;20348;-67
2023/09/25 02:46:41;;;;;;;21.42;9.00;;;;;;;;;;5116150;28;20459;-71
2023/09/25 02:49:07;;;;;;;25.75;9.60;;;;;;;;;;5135223;27;20043;-69
2023/09/25 02:51:33;;;;;;;25.42;8.93;;;;;;;;;;5135124;27;20126;-67
2023/09/25 02:53:59;;;;;;;27.00;9.30;;;;;;;;;;5134024;28;20487;-68
2023/09/25 02:56:25;;;;;;;22.80;8.60;;;;;;;;;;5135175;28;20081;-67
2023/09/25 02:58:51;;;;;;;22.02;8.85;;;;;;;;;;5134245;28;20043;-69
2023/09/25 03:01:17;;;;;;;31.08;9.82;;;;;;;;;;5135063;28;20043;-67
2023/09/25 03:03:43;;;;;;;23.15;9.43;;;;;;;;;;5116067;28;20096;-73
2023/09/25 03:06:09;;;;;;;25.92;8.77;;;;;;;;;;5134748;28;20050;-68
2023/09/25 03:08:35;;;;;;;25.90;9.30;;;;;;;;;;5115998;28;20103;-68
2023/09/25 03:11:01;;;;;;;22.35;9.38;;;;;;;;;;5134923;28;20050;-67
2023/09/25 03:13:28;;;;;;;26.25;8.38;;;;;;;;;;5116184;28;20043;-67
2023/09/25 03:15:54;;;;;;;26.10;8.88;;;;;;;;;;5099041;28;20122;-68
2023/09/25 03:18:20;;;;;;;24.02;9.23;;;;;;;;;;5134426;28;20047;-68
2023/09/25 03:20:46;;;;;;;23.33;9.32;;;;;;;;;;5116270;28;20055;-71
2023/09/25 03:23:12;;;;;;;26.38;9.15;;;;;;;;;;5134102;28;20039;-67
2023/09/25 03:25:41;;;;;;;23.60;8.80;;;;;;;;;;5134672;27;20047;-69
2023/09/25 03:28:07;;;;;;;25.02;8.48;;;;;;;;;;5137995;27;20047;-71
2023/09/25 03:30:33;;;;;;;22.10;9.30;;;;;;;;;;5120382;27;20099;-67
2023/09/25 03:32:59;;;;;;;23.42;8.98;;;;;;;;;;5138099;27;20043;-67
2023/09/25 03:35:25;;;;;;;22.27;9.15;;;;;;;;;;5119517;27;20092;-67
2023/09/25 03:37:51;;;;;;;24.73;9.18;;;;;;;;;;5137842;27;20403;-67
2023/09/25 03:40:17;;;;;;;24.50;9.05;;;;;;;;;;5119800;27;20372;-68
2023/09/25 03:42:43;;;;;;;21.08;8.20;;;;;;;;;;5137653;27;20042;-68
2023/09/25 03:45:10;;;;;;;24.13;9.13;;;;;;;;;;5137909;27;20390;-68
2023/09/25 03:47:36;;;;;;;23.05;8.68;;;;;;;;;;5138080;27;20099;-68
2023/09/25 03:50:03;;;;;;;22.48;7.72;;;;;;;;;;5138367;27;20051;-68
2023/09/25 03:52:29;;;;;;;22.90;8.48;;;;;;;;;;5137682;27;20122;-67
2023/09/25 03:54:55;;;;;;;23.10;9.00;;;;;;;;;;5137522;27;20050;-67
2023/09/25 03:57:21;;;;;;;20.80;7.90;;;;;;;;;;5137511;27;20130;-69
2023/09/25 03:59:47;;;;;;;22.67;8.27;;;;;;;;;;5137532;27;20043;-67
2023/09/25 04:02:13;;;;;;;19.67;7.18;;;;;;;;;;5138078;27;20131;-68
2023/09/25 04:04:39;;;;;;;23.20;8.43;;;;;;;;;;5138188;27;20066;-68
2023/09/25 04:07:05;;;;;;;20.02;7.65;;;;;;;;;;5137703;27;20051;-68
2023/09/25 04:09:31;;;;;;;22.70;8.20;;;;;;;;;;5102180;27;20049;-67
2023/09/25 04:11:59;;;;;;;20.98;7.53;;;;;;;;;;5137304;27;20041;-69
2023/09/25 04:14:25;;;;;;;22.80;8.35;;;;;;;;;;5137858;27;20054;-68
2023/09/25 04:16:51;;;;;;;20.95;7.40;;;;;;;;;;5137850;27;20065;-69
2023/09/25 04:19:17;;;;;;;23.77;8.40;;;;;;;;;;5118786;27;20047;-68
2023/09/25 04:21:43;;;;;;;23.35;7.60;;;;;;;;;;5136856;27;20046;-68
2023/09/25 04:24:10;;;;;;;20.77;7.63;;;;;;;;;;5136744;27;20477;-67
2023/09/25 04:26:39;;;;;;;18.02;7.55;;;;;;;;;;5137404;27;20043;-67
2023/09/25 04:29:09;;;;;;;20.45;7.70;;;;;;;;;;5136734;27;20086;-68
2023/09/25 04:31:35;;;;;;;17.08;7.10;;;;;;;;;;5136834;27;20054;-67
2023/09/25 04:34:03;;;;;;;21.00;7.40;;;;;;;;;;5136791;27;20088;-67
2023/09/25 04:36:29;;;;;;;18.88;7.28;;;;;;;;;;5136789;27;20051;-68
2023/09/25 04:38:55;;;;;;;22.33;7.38;;;;;;;;;;5116829;27;20099;-69
2023/09/25 04:41:21;;;;;;;22.05;7.15;;;;;;;;;;5136495;27;20047;-67
2023/09/25 04:43:47;;;;;;;20.55;8.00;;;;;;;;;;5136473;27;20051;-67
2023/09/25 04:46:13;;;;;;;18.15;6.93;;;;;;;;;;5118356;27;20435;-67
2023/09/25 04:48:39;;;;;;;21.58;7.18;;;;;;;;;;5136412;27;20054;-67
2023/09/25 04:51:05;;;;;;;20.33;7.30;;;;;;;;;;5137246;27;20152;-68
2023/09/25 04:53:31;;;;;;;21.13;7.68;;;;;;;;;;5136511;27;20043;-67
2023/09/25 04:55:57;;;;;;;21.05;8.32;;;;;;;;;;5136472;27;20091;-67
2023/09/25 04:58:24;;;;;;;17.77;7.05;;;;;;;;;;5136278;27;20050;-67
2023/09/25 05:00:50;;;;;;;22.55;7.18;;;;;;;;;;5136738;27;20065;-67
2023/09/25 05:03:16;;;;;;;16.50;6.53;;;;;;;;;;5136176;27;20379;-68
2023/09/25 05:05:42;;;;;;;16.58;6.63;;;;;;;;;;5136059;27;20054;-67
2023/09/25 05:08:08;;;;;;;22.55;6.78;;;;;;;;;;5136657;27;20178;-68
2023/09/25 05:10:35;;;;;;;18.47;6.73;;;;;;;;;;5135915;27;20397;-67
2023/09/25 05:13:01;;;;;;;18.55;6.82;;;;;;;;;;5135987;27;20538;-68
2023/09/25 05:15:27;;;;;;;19.20;7.00;;;;;;;;;;5135832;27;20078;-68
2023/09/25 05:17:53;;;;;;;18.45;6.53;;;;;;;;;;5135743;27;20046;-68
2023/09/25 05:20:22;;;;;;;13.85;5.90;;;;;;;;;;5117455;27;20043;-68
2023/09/25 05:22:49;;;;;;;19.67;6.72;;;;;;;;;;5135295;27;20487;-68
2023/09/25 05:25:15;;;;;;;;;;;;;;;;;;5117398;27;20466;-70
2023/09/25 05:27:42;;;;;;;18.05;7.07;;;;;;;;;;5135597;27;20011;-65
2023/09/25 05:30:10;;;;;;;14.27;5.85;;;;;;;;;;5135648;27;20043;-68
2023/09/25 05:32:36;;;;;;;21.40;6.88;;;;;;;;;;5117217;27;20050;-67
2023/09/25 05:35:04;;;;;;;17.80;5.93;;;;;;;;;;5135473;27;20039;-68
2023/09/25 05:37:30;;;;;;;18.27;6.22;;;;;;;;;;5117199;27;20047;-67
2023/09/25 05:39:56;;;;;;;15.13;6.10;;;;;;;;;;5135387;27;20082;-66
2023/09/25 05:42:23;;;;;;;17.50;6.18;;;;;;;;;;5135250;27;20066;-68
2023/09/25 05:44:50;;;;;;;17.70;5.55;;;;;;;;;;5116899;27;20047;-67
2023/09/25 05:47:16;;;;;;;16.30;5.85;;;;;;;;;;5135794;27;20047;-67
2023/09/25 05:49:42;;;;;;;14.93;6.50;;;;;;;;;;5134921;27;20387;-67
2023/09/25 05:52:08;;;;;;;14.50;6.53;;;;;;;;;;5117133;27;20043;-71
2023/09/25 05:54:35;;;;;;;15.02;5.70;;;;;;;;;;5134952;27;20055;-67
2023/09/25 05:57:01;;;;;;;14.93;6.03;;;;;;;;;;5117037;27;20047;-67
2023/09/25 05:59:28;;;;;;;15.98;6.20;;;;;;;;;;5117046;27;20129;-68
2023/09/25 06:01:54;;;;;;;17.83;6.15;;;;;;;;;;5135241;27;20113;-67
2023/09/25 06:04:20;;;;;;;17.52;6.13;;;;;;;;;;5135372;27;20089;-68
2023/09/25 06:06:46;;;;;;;15.65;5.70;;;;;;;;;;5134913;27;20043;-67
2023/09/25 06:09:15;;;;;;;18.95;6.22;;;;;;;;;;5134794;27;20059;-73
2023/09/25 06:11:42;;;;;;;13.07;5.93;;;;;;;;;;5134845;27;20100;-67
2023/09/25 06:14:09;;;;;;;18.70;5.82;;;;;;;;;;5134807;27;20050;-67
2023/09/25 06:16:36;;;;;;;;;;;;;;;;;;5116943;27;20387;-67
2023/09/25 06:19:04;;;;;;;13.32;5.38;;;;;;;;;;5134564;27;20021;-67
2023/09/25 06:21:31;;;;;;;15.52;5.70;;;;;;;;;;5134403;27;20122;-67
2023/09/25 06:23:57;;;;;;;20.00;6.20;;;;;;;;;;5116116;27;20051;-67
2023/09/25 06:26:27;;;;;;;16.23;5.45;;;;;;;;;;5135079;27;20055;-67
2023/09/25 06:28:53;;;;;;;17.80;6.40;;;;;;;;;;5134590;27;20055;-68
2023/09/25 06:31:19;;;;;;;16.15;5.50;;;;;;;;;;5099336;27;20078;-67
2023/09/25 06:33:45;;;;;;;14.07;6.03;;;;;;;;;;5134464;27;20134;-67
2023/09/25 06:36:12;;;;;;;17.02;6.07;;;;;;;;;;5134398;27;20047;-67
2023/09/25 06:38:38;;;;;;;13.93;5.35;;;;;;;;;;5134334;27;20049;-66
2023/09/25 06:41:04;;;;;;;17.35;5.38;;;;;;;;;;5134287;27;20104;-69
2023/09/25 06:43:30;;;;;;;16.02;5.32;;;;;;;;;;5134534;27;20043;-68
2023/09/25 06:45:56;;;;;;;15.85;5.72;;;;;;;;;;5099347;27;20047;-67
2023/09/25 06:48:23;;;;;;;17.20;6.20;;;;;;;;;;5133938;27;20040;-67
2023/09/25 06:50:49;;;;;;;18.10;6.10;;;;;;;;;;5134409;27;20085;-68
2023/09/25 06:53:15;;;;;;;12.85;5.25;;;;;;;;;;5134222;27;20074;-68
2023/09/25 06:55:43;;;;;;;19.48;6.22;;;;;;;;;;5133495;28;20479;-67
2023/09/25 06:58:09;;;;;;;14.00;5.35;;;;;;;;;;5115895;28;20051;-67
2023/09/25 07:00:35;;;;;;;16.30;5.25;;;;;;;;;;5116476;27;20043;-67
2023/09/25 07:03:01;;;;;;;17.45;5.18;;;;;;;;;;5103353;27;20043;-67
2023/09/25 07:05:28;;;;;;;11.15;4.63;;;;;;;;;;5138895;27;20043;-67
2023/09/25 07:07:56;;;;;;;14.48;5.80;;;;;;;;;;5138119;27;20047;-67
2023/09/25 07:10:22;;;;;;;13.65;5.70;;;;;;;;;;5138812;27;20047;-71
2023/09/25 07:12:48;;;;;;;14.40;5.22;;;;;;;;;;5119930;27;20040;-67
2023/09/25 07:15:14;;;;;;;12.57;5.13;;;;;;;;;;5138193;27;20047;-72
2023/09/25 07:17:41;;;;;;;17.92;5.25;;;;;;;;;;5138146;27;20065;-67
2023/09/25 07:20:07;;;;;;;12.47;5.00;;;;;;;;;;5138855;27;20122;-67
2023/09/25 07:22:33;;;;;;;11.75;5.10;;;;;;;;;;5137856;27;20625;-67
2023/09/25 07:25:00;;;;;;;10.95;4.90;;;;;;;;;;5119432;27;20047;-67
2023/09/25 07:27:28;;;;;;;11.77;4.87;;;;;;;;;;5138017;27;20139;-67
2023/09/25 07:29:54;;;;;;;14.48;4.80;;;;;;;;;;5120120;27;20416;-66
2023/09/25 07:32:20;;;;;;;14.18;4.65;;;;;;;;;;5138141;27;20045;-68
2023/09/25 07:34:46;;;;;;;15.38;4.38;;;;;;;;;;5137484;27;20478;-68
2023/09/25 07:37:14;;;;;;;11.80;4.80;;;;;;;;;;5138155;27;20492;-67
2023/09/25 07:39:40;;;;;;;13.27;4.50;;;;;;;;;;5137958;27;20475;-68
2023/09/25 07:42:10;;;;;;;12.15;4.38;;;;;;;;;;5119569;27;20431;-67
2023/09/25 07:44:36;;;;;;;12.23;4.25;;;;;;;;;;5119868;27;20045;-68
2023/09/25 07:47:07;;;;;;;12.13;4.00;;;;;;;;;;5137725;27;20082;-68
2023/09/25 07:49:38;;;;;;;14.48;4.70;;;;;;;;;;5138028;27;20043;-67
2023/09/25 07:52:15;;;;;;;12.13;4.18;;;;;;;;;;5138406;27;20047;-66
2023/09/25 07:54:41;;;;;;;;;;;;;;;;;;5138247;27;20047;-70
2023/09/25 07:57:07;;;;;;;10.45;3.65;;;;;;;;;;5137216;27;19915;-67
2023/09/25 07:59:34;;;;;;;9.77;3.35;;;;;;;;;;5137222;27;20055;-67
2023/09/25 08:02:01;;;;;;;15.00;3.83;;;;;;;;;;5101839;27;20069;-67
2023/09/25 08:04:27;;;;;;;12.07;3.80;;;;;;;;;;5136984;27;20051;-67
2023/09/25 08:06:53;;;;;;;12.48;3.55;;;;;;;;;;5137697;27;20046;-68
2023/09/25 08:09:20;;;;;;;14.38;3.85;;;;;;;;;;5137618;27;20604;-67
2023/09/25 08:11:46;;;;;;;11.98;3.40;;;;;;;;;;5119054;27;20051;-67
2023/09/25 08:14:12;;;;;;;11.90;3.27;;;;;;;;;;5137357;27;20050;-67
2023/09/25 08:16:39;;;;;;;11.88;3.58;;;;;;;;;;5137092;27;20100;-67
2023/09/25 08:19:05;;;;;;;10.68;3.20;;;;;;;;;;5118692;27;20050;-70
2023/09/25 08:21:32;;;;;;;11.70;3.70;;;;;;;;;;5119109;27;20364;-71
2023/09/25 08:23:58;;;;;;;13.45;3.30;;;;;;;;;;5136889;27;20194;-67
2023/09/25 08:26:24;;;;;;;11.93;3.53;;;;;;;;;;5118873;27;20051;-66
2023/09/25 08:28:50;;;;;;;12.63;3.78;;;;;;;;;;5101784;27;20045;-67
2023/09/25 08:31:16;;;;;;;8.38;3.22;;;;;;;;;;5101380;27;20043;-67
2023/09/25 08:33:43;;;;;;;9.67;2.93;;;;;;;;;;5136832;27;20065;-66
2023/09/25 08:36:12;;;;;;;9.80;3.38;;;;;;;;;;5101611;27;20054;-67
2023/09/25 08:38:38;;;;;;;10.23;3.08;;;;;;;;;;5136897;27;20475;-70
2023/09/25 08:41:04;;;;;;;8.83;3.17;;;;;;;;;;5136499;27;20546;-68
2023/09/25 08:43:31;;;;;;;11.07;3.40;;;;;;;;;;5137108;27;20064;-67
2023/09/25 08:45:57;;;;;;;9.55;3.10;;;;;;;;;;5136697;27;20122;-68
2023/09/25 08:48:24;;;;;;;10.73;3.13;;;;;;;;;;5137150;27;20458;-67
2023/09/25 08:50:50;;;;;;;7.43;2.67;;;;;;;;;;5136712;27;20054;-68
2023/09/25 08:53:16;;;;;;;10.68;3.03;;;;;;;;;;5136531;27;20180;-68
2023/09/25 08:55:43;;;;;;;9.70;3.67;;;;;;;;;;5136228;27;20222;-67
2023/09/25 08:58:09;;;;;;;9.20;3.05;;;;;;;;;;5118099;27;20047;-66
2023/09/25 09:00:36;;;;;;;10.20;3.63;;;;;;;;;;5118247;27;20096;-67
2023/09/25 09:03:02;;;;;;;10.38;3.22;;;;;;;;;;5136175;27;20092;-68
2023/09/25 09:05:28;;;;;;;9.35;3.13;;;;;;;;;;5135879;27;20548;-67
2023/09/25 09:07:59;;;;;;;13.00;3.35;;;;;;;;;;5136082;27;20065;-67
2023/09/25 09:10:29;;;;;;;9.90;3.38;;;;;;;;;;5136019;27;20043;-68
2023/09/25 09:12:56;;;;;;;9.73;3.60;;;;;;;;;;5136055;27;20130;-67
2023/09/25 09:15:26;;;;;;;13.73;3.65;;;;;;;;;;5136830;27;20452;-67
2023/09/25 09:17:53;;;;;;;11.60;3.10;;;;;;;;;;5136181;27;20055;-67
2023/09/25 09:20:19;;;;;;;13.55;3.20;;;;;;;;;;5137394;27;20051;-67
2023/09/25 09:22:52;;;;;;;8.93;3.10;;;;;;;;;;5100630;27;20039;-69
2023/09/25 09:25:21;;;;;;;9.80;3.30;;;;;;;;;;5116810;27;20285;-67
2023/09/25 09:27:47;;;;;;;10.75;3.50;;;;;;;;;;5117116;27;20047;-68
2023/09/25 09:30:20;;;;;;;11.67;3.07;;;;;;;;;;5135806;27;20082;-66
2023/09/25 09:32:49;;;;;;;11.45;3.22;;;;;;;;;;5117490;27;20058;-67
2023/09/25 09:35:15;;;;;;;10.68;2.90;;;;;;;;;;5118056;27;20490;-67
2023/09/25 09:37:41;;;;;;;11.75;3.03;;;;;;;;;;5135631;27;20123;-68
2023/09/25 09:40:11;;;;;;;9.60;3.00;;;;;;;;;;5135502;27;20059;-67
2023/09/25 09:42:38;;;;;;;11.98;2.95;;;;;;;;;;5117555;27;20047;-67
2023/09/25 09:45:07;;;;;;;;;;;;;;;;;;5083925;27;20042;-67
2023/09/25 09:47:34;;;;;;;10.23;3.10;;;;;;;;;;5135799;27;19972;-67
2023/09/25 09:50:01;;;;;;;10.30;3.10;;;;;;;;;;5100263;27;20086;-68
2023/09/25 09:52:27;;;;;;;13.43;3.05;;;;;;;;;;5117606;27;20039;-67
2023/09/25 09:54:54;;;;;;;13.85;3.47;;;;;;;;;;5116920;27;20047;-67
2023/09/25 09:57:21;;;;;;;12.90;3.42;;;;;;;;;;5117557;27;20439;-68
2023/09/25 09:59:48;;;;;;;10.95;3.10;;;;;;;;;;5117370;27;20130;-70
2023/09/25 10:02:15;;;;;;;12.10;3.65;;;;;;;;;;5135558;27;20379;-67
2023/09/25 10:04:41;;;;;;;11.30;3.38;;;;;;;;;;5116776;27;20073;-69
2023/09/25 10:07:08;;;;;;;11.47;3.43;;;;;;;;;;5116662;27;20043;-67
2023/09/25 10:09:35;;;;;;;13.07;3.40;;;;;;;;;;5135163;27;20329;-67
2023/09/25 10:12:04;;;;;;;13.15;3.00;;;;;;;;;;5134942;27;20043;-66
2023/09/25 10:14:37;;;;;;;11.15;3.40;;;;;;;;;;5135324;27;20043;-66
2023/09/25 10:17:04;;;;;;;11.60;3.90;;;;;;;;;;5135279;27;20383;-67
2023/09/25 10:19:30;;;;;;;;;;;;;;;;;;5135194;27;20047;-69
2023/09/25 10:22:06;;;;;;;10.50;3.20;;;;;;;;;;5134608;27;19926;-69
2023/09/25 10:24:33;;;;;;;9.73;3.00;;;;;;;;;;5134497;27;20062;-67
2023/09/25 10:27:00;;;;;;;12.02;3.53;;;;;;;;;;5135141;27;20050;-67
2023/09/25 10:29:27;;;;;;;10.13;2.95;;;;;;;;;;5116405;27;20054;-68
2023/09/25 10:31:54;;;;;;;9.68;3.33;;;;;;;;;;5135237;27;20082;-68
2023/09/25 10:34:23;;;;;;;11.02;3.30;;;;;;;;;;5116881;27;20043;-68
2023/09/25 10:36:52;;;;;;;10.50;3.00;;;;;;;;;;5115335;27;20085;-68
2023/09/25 10:39:18;;;;;;;14.13;4.13;;;;;;;;;;5134400;27;20082;-67
2023/09/25 10:41:48;;;;;;;14.38;3.25;;;;;;;;;;5135005;27;20372;-67
2023/09/25 10:44:15;;;;;;;12.02;3.20;;;;;;;;;;5134106;27;20437;-66
2023/09/25 10:46:41;;;;;;;;;;;;;;;;;;5134787;27;20105;-68
2023/09/25 10:49:08;;;;;;;12.25;3.60;;;;;;;;;;5134357;27;20350;-67
2023/09/25 10:51:35;;;;;;;10.13;3.40;;;;;;;;;;5134279;27;20100;-70
2023/09/25 10:54:01;;;;;;;;;;;;;;;;;;5134392;27;20506;-67
2023/09/25 10:56:27;;;;;;;17.00;4.13;;;;;;;;;;5134524;27;20006;-67
2023/09/25 10:58:53;;;;;;;10.18;3.28;;;;;;;;;;5134008;28;20599;-68
2023/09/25 11:01:29;;;;;;;14.27;3.92;;;;;;;;;;5134205;28;20463;-68
2023/09/25 11:03:57;;;;;;;10.97;3.90;;;;;;;;;;5115668;28;20055;-70
2023/09/25 11:06:24;;;;;;;17.20;3.90;;;;;;;;;;5134150;28;20054;-66
2023/09/25 11:09:06;;;;;;;13.63;3.78;;;;;;;;;;5134224;28;20103;-67
2023/09/25 11:11:32;;;;;;;17.35;4.07;;;;;;;;;;5134729;28;20104;-68
2023/09/25 11:13:58;;;;;;;12.88;3.80;;;;;;;;;;5116678;28;20397;-72
2023/09/25 11:16:25;;;;;;;13.70;4.05;;;;;;;;;;5133763;28;20095;-67
2023/09/25 11:19:03;;;;;;;11.93;3.88;;;;;;;;;;5115974;28;20050;-67
2023/09/25 11:21:31;;;;;;;15.98;5.03;;;;;;;;;;5134138;28;20047;-67
2023/09/25 11:23:57;;;;;;;13.18;4.28;;;;;;;;;;5133724;28;20055;-68
2023/09/25 11:26:27;;;;;;;16.33;4.35;;;;;;;;;;5115807;28;20483;-67
2023/09/25 11:28:58;;;;;;;20.90;4.85;;;;;;;;;;5115861;28;20049;-66
2023/09/25 11:31:26;;;;;;;15.73;4.60;;;;;;;;;;5134620;28;20070;-68
2023/09/25 11:33:52;;;;;;;12.75;3.78;;;;;;;;;;5134027;28;20047;-68
2023/09/25 11:36:19;;;;;;;11.50;3.85;;;;;;;;;;5133679;28;20043;-68
2023/09/25 11:38:49;;;;;;;10.13;3.25;;;;;;;;;;5133791;28;20479;-68
2023/09/25 11:41:15;;;;;;;13.43;3.30;;;;;;;;;;5115733;28;20043;-69
2023/09/25 11:43:42;;;;;;;14.23;3.70;;;;;;;;;;5134295;28;20043;-67
2023/09/25 11:46:08;;;;;;;11.18;3.50;;;;;;;;;;5134142;28;20088;-67
2023/09/25 11:48:36;;;;;;;17.63;3.97;;;;;;;;;;5119294;27;20047;-67
2023/09/25 11:51:02;;;;;;;12.45;3.40;;;;;;;;;;5137754;27;20118;-72
2023/09/25 11:53:28;;;;;;;16.15;3.67;;;;;;;;;;5138288;27;20039;-68
2023/09/25 11:55:54;;;;;;;13.45;3.75;;;;;;;;;;5138207;27;20047;-67
2023/09/25 11:58:20;;;;;;;12.07;3.35;;;;;;;;;;5137599;27;20039;-67
2023/09/25 12:00:46;;;;;;;9.93;3.42;;;;;;;;;;5138240;27;20053;-69
2023/09/25 12:03:13;;;;;;;14.70;3.80;;;;;;;;;;5137333;27;20129;-67
2023/09/25 12:05:39;;;;;;;16.70;3.97;;;;;;;;;;5137404;27;20047;-67
2023/09/25 12:08:06;;;;;;;12.75;3.25;;;;;;;;;;5137417;27;20043;-70
2023/09/25 12:10:38;;;;;;;14.60;4.05;;;;;;;;;;5137322;27;20051;-68
2023/09/25 12:13:08;;;;;;;11.82;3.35;;;;;;;;;;5087119;27;20087;-68
2023/09/25 12:15:34;;;;;;;11.13;3.55;;;;;;;;;;5137160;27;20359;-67
2023/09/25 12:18:00;;;;;;;11.73;3.85;;;;;;;;;;5119158;27;20138;-67
2023/09/25 12:20:27;;;;;;;12.60;3.50;;;;;;;;;;5137497;27;20047;-70
2023/09/25 12:22:54;;;;;;;;;;;;;;;;;;5137231;27;20055;-66
2023/09/25 12:25:22;;;;;;;11.63;3.55;;;;;;;;;;5137318;27;19926;-68
2023/09/25 12:27:48;;;;;;;8.63;3.50;;;;;;;;;;5137212;27;20055;-67
2023/09/25 12:30:15;;;;;;;15.60;3.80;;;;;;;;;;5136755;27;20065;-68
2023/09/25 12:32:47;;;;;;;10.27;3.30;;;;;;;;;;5136674;27;20402;-68
2023/09/25 12:35:18;;;;;;;14.32;3.67;;;;;;;;;;5136681;27;20049;-67
2023/09/25 12:37:45;;;;;;;8.55;3.17;;;;;;;;;;5119073;27;20491;-66
2023/09/25 12:40:11;;;;;;;;;;;;;;;;;;5137075;27;20039;-74
2023/09/25 12:42:37;;;;;;;11.02;3.15;;;;;;;;;;5136633;27;19919;-68
2023/09/25 12:45:04;;;;;;;11.48;3.00;;;;;;;;;;5136693;27;20038;-68
2023/09/25 12:47:30;;;;;;;14.38;3.08;;;;;;;;;;5136535;27;20047;-66
2023/09/25 12:49:57;;;;;;;13.73;3.45;;;;;;;;;;5118108;27;20517;-68
2023/09/25 12:52:23;;;;;;;17.38;3.63;;;;;;;;;;5136419;27;20126;-67
2023/09/25 12:54:50;;;;;;;;;;;;;;;;;;5136352;27;20058;-68
2023/09/25 12:57:16;;;;;;;12.90;3.42;;;;;;;;;;5118509;27;19920;-68
2023/09/25 12:59:44;;;;;;;12.45;2.90;;;;;;;;;;5135979;27;20050;-67
2023/09/25 13:02:10;;;;;;;14.43;2.65;;;;;;;;;;5117908;27;20120;-67
2023/09/25 13:04:36;;;;;;;13.68;3.67;;;;;;;;;;5117827;27;20423;-68
2023/09/25 13:07:02;;;;;;;9.93;2.38;;;;;;;;;;5136543;27;20051;-68
2023/09/25 13:09:28;;;;;;;11.30;3.35;;;;;;;;;;5135868;27;20137;-67
2023/09/25 13:11:54;;;;;;;9.70;3.03;;;;;;;;;;5136069;27;20051;-68
2023/09/25 13:14:20;;;;;;;9.90;2.80;;;;;;;;;;5135579;27;20563;-68
2023/09/25 13:16:47;;;;;;;11.93;3.08;;;;;;;;;;5136031;27;20482;-68
2023/09/25 13:19:13;;;;;;;10.25;3.10;;;;;;;;;;5118096;27;20054;-67
2023/09/25 13:21:39;;;;;;;11.93;2.97;;;;;;;;;;5136097;27;20051;-67
2023/09/25 13:24:05;;;;;;;11.20;3.25;;;;;;;;;;5135350;27;20458;-68
2023/09/25 13:26:31;;;;;;;9.07;2.70;;;;;;;;;;5136108;27;20142;-68
2023/09/25 13:28:57;;;;;;;16.42;3.05;;;;;;;;;;5135779;27;20046;-68
2023/09/25 13:31:23;;;;;;;10.93;3.13;;;;;;;;;;5135408;27;20143;-67
2023/09/25 13:33:50;;;;;;;13.55;3.47;;;;;;;;;;5135744;27;20092;-67
2023/09/25 13:36:16;;;;;;;11.63;2.97;;;;;;;;;;5135960;27;20043;-67
2023/09/25 13:38:42;;;;;;;8.98;3.42;;;;;;;;;;5136293;27;20039;-67
2023/09/25 13:41:10;;;;;;;11.70;3.53;;;;;;;;;;5135651;27;20387;-67
2023/09/25 13:43:37;;;;;;;7.97;3.50;;;;;;;;;;5135363;27;20049;-66
2023/09/25 13:46:05;;;;;;;11.90;3.03;;;;;;;;;;5135597;27;20053;-67
2023/09/25 13:48:32;;;;;;;9.85;2.67;;;;;;;;;;5117814;27;20093;-67
2023/09/25 13:50:59;;;;;;;12.52;3.10;;;;;;;;;;5135164;27;20507;-67
2023/09/25 13:53:25;;;;;;;10.25;2.97;;;;;;;;;;5135348;27;20383;-68
2023/09/25 13:55:51;;;;;;;11.18;3.00;;;;;;;;;;5117010;27;20111;-67
2023/09/25 13:58:20;;;;;;;11.55;3.08;;;;;;;;;;5135351;27;20065;-69
2023/09/25 14:00:47;;;;;;;14.27;3.55;;;;;;;;;;5135066;27;20043;-68
2023/09/25 14:03:13;;;;;;;12.73;3.30;;;;;;;;;;5134730;27;20614;-67
2023/09/25 14:05:41;;;;;;;7.13;2.97;;;;;;;;;;5099584;27;20051;-68
2023/09/25 14:08:07;;;;;;;9.45;3.20;;;;;;;;;;5135294;27;20372;-69
2023/09/25 14:10:37;;;;;;;10.23;3.42;;;;;;;;;;5099842;27;20087;-67
2023/09/25 14:13:05;;;;;;;7.88;3.03;;;;;;;;;;5134950;27;20108;-69
2023/09/25 14:15:31;;;;;;;11.18;2.80;;;;;;;;;;5100440;27;20409;-67
2023/09/25 14:17:57;;;;;;;9.00;2.80;;;;;;;;;;5116750;27;20082;-67
2023/09/25 14:20:23;;;;;;;10.85;2.88;;;;;;;;;;5134706;27;20108;-68
2023/09/25 14:22:50;;;;;;;9.10;3.08;;;;;;;;;;5134703;27;20079;-68
2023/09/25 14:25:16;;;;;;;10.23;2.72;;;;;;;;;;5134391;27;20054;-68
2023/09/25 14:27:42;;;;;;;10.13;2.85;;;;;;;;;;5134701;27;20043;-66
2023/09/25 14:30:09;;;;;;;8.00;3.08;;;;;;;;;;5134714;27;20092;-67